Decoded Metar for KCPR (CASPER in WY, USA) (IATA:CPR) | Meteo·Mobile Aviation Weather
aviador You're here:

KCPR Decoded Metar

CASPER in WY, USA
Report Time2018-12-13 03:53:00
UTC Time2018-12-13 04:50:41
Flight Rules vfr VFR
Wind290° at 13 kt
W.Decomp.*RWY 26: 12.4 kt HW 4.0 kt RCW
RWY 21: 4.9 kt HW 12.1 kt RCW
W.Rank290° ranks 14
Current wind is above 290° avg. (9.4)
Visibility9999 m
Phenomena:N/A
Clouds:N/A
Expected CloudBase > 2,400 ft AGL from Temp-Dew spread
CeilingNone
Temp-3°C (ISA -7)
Dew Point-9°C (64% RH)
AAT-10.6°C
QNH1017 hPa
Density Alt4,337 ft
Elevation5,318 ft
Report Wrong Elevation
Raw Report
KCPR 130353Z 29013KT 10SM CLR M03/M09 A3003 RMK AO2 SNE0256 SLP188
P0000 T10281089=

Extra information for KCPR:More info

Metar Taf Metar & Taf Last 4 Metars F.Rules Stats Wind Profile Meteogram Temp Stats Airport Information Weather charts Add Link Nearby VenuesMetar ALERT Operation Metar Decoded Social comments

AIRNAV info for KCPR